createdAt,value
2022-11-08T00:00:49.730Z,92.39
2022-11-08T00:01:52.005Z,92.58
2022-11-08T00:02:53.612Z,92.93
2022-11-08T00:03:55.189Z,92.31
2022-11-08T00:04:56.819Z,91.67
2022-11-08T00:06:17.117Z,91.64
2022-11-08T00:07:37.169Z,92.27
2022-11-08T00:08:57.673Z,91.70
2022-11-08T00:10:17.547Z,91.61
2022-11-08T00:11:37.733Z,91.66
2022-11-08T00:12:57.731Z,92.06
2022-11-08T00:13:59.990Z,92.00
2022-11-08T00:15:02.621Z,92.18
2022-11-08T00:16:04.225Z,91.58
2022-11-08T00:17:08.640Z,92.16
2022-11-08T00:18:10.149Z,91.60
2022-11-08T00:19:11.859Z,90.84
2022-11-08T00:20:13.494Z,91.06
2022-11-08T00:21:15.059Z,90.79
2022-11-08T00:22:17.694Z,90.15
2022-11-08T00:23:19.217Z,90.29
2022-11-08T00:24:20.763Z,90.02
2022-11-08T00:25:22.351Z,90.11
2022-11-08T00:26:23.881Z,89.91
2022-11-08T00:27:26.456Z,89.60
2022-11-08T00:28:27.967Z,90.71
2022-11-08T00:29:29.532Z,89.46
2022-11-08T00:30:31.078Z,89.60
2022-11-08T00:31:32.588Z,89.78
2022-11-08T00:32:34.191Z,89.25
2022-11-08T00:33:35.731Z,88.82
2022-11-08T00:34:37.355Z,89.16
2022-11-08T00:35:38.864Z,88.66
2022-11-08T00:36:40.386Z,88.84
2022-11-08T00:37:41.946Z,88.17
2022-11-08T00:38:44.378Z,87.93
2022-11-08T00:39:46.223Z,87.77
2022-11-08T00:40:47.792Z,86.92
2022-11-08T00:41:49.346Z,87.09
2022-11-08T00:42:50.925Z,87.46
2022-11-08T00:43:52.556Z,87.01
2022-11-08T00:44:54.115Z,87.11
2022-11-08T00:45:55.632Z,87.27
2022-11-08T00:46:57.147Z,86.74
2022-11-08T00:47:58.647Z,86.98
2022-11-08T00:49:00.204Z,86.94
2022-11-08T00:50:01.870Z,85.93
2022-11-08T00:51:06.218Z,86.27
2022-11-08T00:52:07.807Z,85.13
2022-11-08T00:53:09.755Z,84.63
2022-11-08T00:54:15.679Z,85.09
2022-11-08T00:55:17.191Z,84.66
2022-11-08T00:56:18.698Z,84.58
2022-11-08T00:57:22.294Z,84.69
2022-11-08T00:58:32.842Z,84.11
2022-11-08T00:59:34.384Z,84.93
2022-11-08T01:00:35.987Z,84.54
2022-11-08T01:01:37.689Z,84.57
2022-11-08T01:02:39.327Z,85.04
2022-11-08T01:03:40.963Z,84.62
2022-11-08T01:04:42.516Z,84.28
2022-11-08T01:05:44.511Z,83.74
2022-11-08T01:06:46.715Z,83.50
2022-11-08T01:07:48.271Z,83.58
2022-11-08T01:08:50.207Z,83.42
2022-11-08T01:09:51.731Z,83.52
2022-11-08T01:10:53.345Z,82.93
2022-11-08T01:11:54.870Z,83.48
2022-11-08T01:12:56.630Z,83.57
2022-11-08T01:14:00.148Z,83.63
2022-11-08T01:15:01.761Z,83.88
2022-11-08T01:16:07.976Z,84.36
2022-11-08T01:17:09.527Z,83.51
2022-11-08T01:18:13.814Z,83.62
2022-11-08T01:19:15.369Z,84.97
2022-11-08T01:20:17.059Z,84.89
2022-11-08T01:21:18.982Z,85.54
2022-11-08T01:22:20.539Z,85.40
2022-11-08T01:23:22.057Z,85.91
2022-11-08T01:24:23.587Z,86.25
2022-11-08T01:25:25.506Z,86.55
2022-11-08T01:26:29.237Z,86.48
2022-11-08T01:27:30.935Z,86.16
2022-11-08T01:28:33.736Z,87.23
2022-11-08T01:29:35.262Z,87.27
2022-11-08T01:30:38.522Z,87.62
2022-11-08T01:31:40.026Z,87.14
2022-11-08T01:32:41.562Z,87.37
2022-11-08T01:33:48.461Z,87.20
2022-11-08T01:34:52.564Z,87.55
2022-11-08T01:35:54.071Z,87.92
2022-11-08T01:36:55.603Z,88.17
2022-11-08T01:37:57.124Z,88.66
2022-11-08T01:38:58.720Z,89.12
2022-11-08T01:40:00.324Z,89.42
2022-11-08T01:41:02.026Z,88.29
2022-11-08T01:42:03.728Z,88.96
2022-11-08T01:43:31.679Z,87.81
2022-11-08T01:44:33.198Z,87.47
2022-11-08T01:46:09.788Z,86.82
2022-11-08T01:47:11.280Z,86.69
2022-11-08T01:48:12.806Z,86.65
2022-11-08T01:49:35.096Z,86.90
2022-11-08T01:50:36.739Z,86.58
2022-11-08T01:52:00.167Z,87.13
2022-11-08T01:53:01.716Z,86.77
2022-11-08T01:54:06.799Z,86.91
2022-11-08T01:55:20.324Z,86.58
2022-11-08T01:56:21.928Z,86.52
2022-11-08T01:57:43.159Z,86.82
2022-11-08T01:58:49.828Z,86.28
2022-11-08T01:59:55.984Z,86.89
2022-11-08T02:00:59.811Z,86.90
2022-11-08T02:02:01.817Z,86.70
2022-11-08T02:03:05.270Z,87.07
2022-11-08T02:04:07.011Z,87.33
2022-11-08T02:05:25.001Z,87.19
2022-11-08T02:06:29.554Z,87.31
2022-11-08T02:07:34.333Z,87.26
2022-11-08T02:08:41.823Z,87.46
2022-11-08T02:09:46.626Z,87.22
2022-11-08T02:10:50.959Z,87.14
2022-11-08T02:11:53.719Z,88.18
2022-11-08T02:12:56.017Z,88.35
2022-11-08T02:13:58.295Z,88.38
2022-11-08T02:15:00.084Z,88.30
2022-11-08T02:16:01.990Z,88.64
2022-11-08T02:17:04.284Z,89.00
2022-11-08T02:18:06.306Z,88.98
2022-11-08T02:19:12.058Z,88.49
2022-11-08T02:20:13.722Z,87.95
2022-11-08T02:21:28.478Z,87.19
2022-11-08T02:22:38.971Z,86.82
2022-11-08T02:23:51.751Z,86.99
2022-11-08T02:24:54.318Z,86.71
2022-11-08T02:25:56.174Z,86.69
2022-11-08T02:26:57.805Z,86.46
2022-11-08T02:27:59.327Z,86.83
2022-11-08T02:29:23.646Z,86.81
2022-11-08T02:30:25.631Z,87.39
2022-11-08T02:31:27.143Z,87.66
2022-11-08T02:32:38.095Z,87.69
2022-11-08T02:33:40.540Z,87.41
2022-11-08T02:34:47.062Z,87.74
2022-11-08T02:35:52.178Z,87.50
2022-11-08T02:36:54.238Z,87.51
2022-11-08T02:37:55.847Z,89.36
2022-11-08T02:38:58.100Z,89.93
2022-11-08T02:39:59.773Z,89.65
2022-11-08T02:41:01.331Z,89.32
2022-11-08T02:42:03.369Z,89.68
2022-11-08T02:43:04.878Z,89.63
2022-11-08T02:44:06.463Z,89.37
2022-11-08T02:45:08.484Z,90.86
2022-11-08T02:46:10.177Z,90.61
2022-11-08T02:47:11.989Z,90.93
2022-11-08T02:48:14.424Z,91.83
2022-11-08T02:49:16.137Z,92.14
2022-11-08T02:50:17.774Z,92.63
2022-11-08T02:51:19.402Z,91.92
2022-11-08T02:52:21.034Z,91.78
2022-11-08T02:53:22.755Z,91.09
2022-11-08T02:54:24.281Z,90.42
2022-11-08T02:55:25.956Z,90.03
2022-11-08T02:56:27.580Z,89.96
2022-11-08T02:57:29.107Z,90.04
2022-11-08T02:58:30.682Z,90.32
2022-11-08T02:59:32.228Z,89.67
2022-11-08T03:00:34.686Z,89.58
2022-11-08T03:01:36.310Z,89.42
2022-11-08T03:02:37.975Z,88.77
2022-11-08T03:03:39.593Z,88.02
2022-11-08T03:04:41.267Z,88.22
2022-11-08T03:05:43.458Z,87.79
2022-11-08T03:06:45.046Z,89.10
2022-11-08T03:07:46.775Z,89.64
2022-11-08T03:08:48.294Z,90.34
2022-11-08T03:09:49.801Z,91.48
2022-11-08T03:10:51.454Z,92.59
2022-11-08T03:11:53.452Z,92.17
2022-11-08T03:12:56.705Z,92.20
2022-11-08T03:13:58.359Z,92.78
2022-11-08T03:14:59.871Z,91.54
2022-11-08T03:16:06.070Z,92.27
2022-11-08T03:17:07.650Z,91.95
2022-11-08T03:18:09.185Z,90.87
2022-11-08T03:19:12.133Z,90.56
2022-11-08T03:20:13.643Z,90.28
2022-11-08T03:21:15.193Z,90.53
2022-11-08T03:22:16.809Z,90.25
2022-11-08T03:23:18.366Z,90.00
2022-11-08T03:24:19.882Z,89.98
2022-11-08T03:25:21.509Z,89.63
2022-11-08T03:26:23.038Z,89.84
2022-11-08T03:27:24.975Z,89.87
2022-11-08T03:28:26.683Z,89.02
2022-11-08T03:29:28.457Z,90.10
2022-11-08T03:30:30.108Z,90.73
2022-11-08T03:31:31.611Z,90.61
2022-11-08T03:32:33.554Z,90.21
2022-11-08T03:33:35.392Z,90.12
2022-11-08T03:34:36.958Z,89.23
2022-11-08T03:35:38.562Z,88.98
2022-11-08T03:36:40.063Z,88.75
2022-11-08T03:37:41.801Z,88.38
2022-11-08T03:38:43.368Z,87.69
2022-11-08T03:39:44.883Z,87.50
2022-11-08T03:40:47.082Z,87.61
2022-11-08T03:41:48.615Z,87.00
2022-11-08T03:42:50.208Z,87.72
2022-11-08T03:43:51.806Z,87.91
2022-11-08T03:44:53.356Z,87.09
2022-11-08T03:45:54.887Z,87.88
2022-11-08T03:46:56.661Z,87.97
2022-11-08T03:47:58.299Z,88.51
2022-11-08T03:48:59.819Z,88.58
2022-11-08T03:50:01.334Z,88.70
2022-11-08T03:51:02.871Z,88.74
2022-11-08T03:52:04.584Z,89.30
2022-11-08T03:53:06.137Z,89.76
2022-11-08T03:54:07.690Z,89.50
2022-11-08T03:55:10.715Z,88.88
2022-11-08T03:56:12.254Z,88.97
2022-11-08T03:57:13.781Z,88.27
2022-11-08T03:58:15.540Z,88.22
2022-11-08T03:59:17.431Z,87.71
2022-11-08T04:00:22.460Z,88.11
2022-11-08T04:01:24.184Z,87.72
2022-11-08T04:02:25.912Z,87.43
2022-11-08T04:03:27.495Z,87.67
2022-11-08T04:04:29.022Z,88.06
2022-11-08T04:05:32.500Z,87.75
2022-11-08T04:06:34.451Z,88.14
2022-11-08T04:07:36.499Z,88.43
2022-11-08T04:08:38.189Z,88.70
2022-11-08T04:09:43.998Z,88.55
2022-11-08T04:10:45.551Z,90.31
2022-11-08T04:12:05.446Z,90.31
2022-11-08T04:13:27.067Z,90.46
2022-11-08T04:14:47.515Z,92.07
2022-11-08T04:15:54.913Z,91.18
2022-11-08T04:16:56.688Z,92.01
2022-11-08T04:18:17.704Z,91.64
2022-11-08T04:19:38.286Z,91.58
2022-11-08T04:21:03.672Z,91.10
2022-11-08T04:22:06.463Z,91.45
2022-11-08T04:23:08.003Z,92.15
2022-11-08T04:24:09.558Z,92.21
2022-11-08T04:25:11.086Z,92.47
2022-11-08T04:26:12.786Z,92.44
2022-11-08T04:27:14.315Z,93.12
2022-11-08T04:28:17.410Z,92.67
2022-11-08T04:29:19.236Z,93.28
2022-11-08T04:30:20.916Z,92.88
2022-11-08T04:31:22.565Z,92.78
2022-11-08T04:32:24.112Z,92.44
2022-11-08T04:33:25.774Z,93.01
2022-11-08T04:34:27.311Z,93.17
2022-11-08T04:35:30.357Z,92.36
2022-11-08T04:36:33.428Z,93.18
2022-11-08T04:37:34.987Z,92.86
2022-11-08T04:38:36.949Z,94.17
2022-11-08T04:39:38.790Z,94.88
2022-11-08T04:40:40.329Z,94.70
2022-11-08T04:41:41.871Z,94.57
2022-11-08T04:42:46.240Z,94.74
2022-11-08T04:43:48.886Z,94.43
2022-11-08T04:44:50.391Z,95.13
2022-11-08T04:45:51.926Z,94.48
2022-11-08T04:46:53.622Z,95.67
2022-11-08T04:47:55.192Z,95.76
2022-11-08T04:48:59.192Z,95.65
2022-11-08T04:50:00.734Z,95.67
2022-11-08T04:51:12.132Z,95.56
2022-11-08T04:52:15.420Z,95.64
2022-11-08T04:53:16.936Z,96.41
2022-11-08T04:54:18.460Z,96.84
2022-11-08T04:55:21.394Z,97.08
2022-11-08T04:56:24.241Z,97.31
2022-11-08T04:57:25.795Z,97.47
2022-11-08T04:58:28.660Z,96.75
2022-11-08T04:59:30.268Z,96.95
2022-11-08T05:00:31.768Z,96.71
2022-11-08T05:01:33.326Z,96.39
2022-11-08T05:02:35.052Z,96.25
2022-11-08T05:03:36.988Z,95.19
2022-11-08T05:04:38.532Z,94.11
2022-11-08T05:05:40.058Z,94.08
2022-11-08T05:06:41.630Z,94.20
2022-11-08T05:07:46.054Z,93.12
2022-11-08T05:08:47.786Z,92.73
2022-11-08T05:09:49.317Z,92.96
2022-11-08T05:10:50.880Z,92.11
2022-11-08T05:11:52.550Z,91.41
2022-11-08T05:12:57.050Z,91.62
2022-11-08T05:13:58.994Z,91.03
2022-11-08T05:15:00.547Z,90.09
2022-11-08T05:16:07.163Z,89.67
2022-11-08T05:17:08.724Z,88.76
2022-11-08T05:18:10.453Z,90.15
2022-11-08T05:19:13.328Z,89.57
2022-11-08T05:20:33.574Z,88.99
2022-11-08T05:21:53.319Z,89.33
2022-11-08T05:23:19.241Z,88.24
2022-11-08T05:24:20.775Z,88.01
2022-11-08T05:25:22.292Z,86.96
2022-11-08T05:26:24.136Z,86.98
2022-11-08T05:27:25.675Z,88.07
2022-11-08T05:28:32.425Z,86.87
2022-11-08T05:29:36.467Z,86.71
2022-11-08T05:30:42.022Z,87.26
2022-11-08T05:31:43.574Z,87.43
2022-11-08T05:32:45.118Z,87.99
2022-11-08T05:33:47.001Z,89.14
2022-11-08T05:34:48.598Z,88.58
2022-11-08T05:35:50.500Z,89.62
2022-11-08T05:36:52.027Z,89.42
2022-11-08T05:37:53.573Z,90.10
2022-11-08T05:38:55.838Z,90.27
2022-11-08T05:39:57.339Z,89.90
2022-11-08T05:41:07.331Z,88.93
2022-11-08T05:42:09.217Z,88.91
2022-11-08T05:43:10.846Z,90.40
2022-11-08T05:44:12.383Z,90.61
2022-11-08T05:45:13.924Z,91.82
2022-11-08T05:46:16.757Z,91.52
2022-11-08T05:47:18.287Z,91.87
2022-11-08T05:48:20.046Z,91.77
2022-11-08T05:49:21.824Z,90.36
2022-11-08T05:50:25.058Z,90.53
2022-11-08T05:51:26.762Z,90.31
2022-11-08T05:52:28.386Z,88.86
2022-11-08T05:53:30.280Z,88.94
2022-11-08T05:54:32.471Z,88.79
2022-11-08T05:55:34.036Z,88.88
2022-11-08T05:56:35.612Z,88.18
2022-11-08T05:57:37.158Z,87.43
2022-11-08T05:58:38.694Z,88.03
2022-11-08T05:59:40.291Z,87.33
2022-11-08T06:00:41.971Z,88.16
2022-11-08T06:01:43.623Z,87.19
2022-11-08T06:02:45.211Z,87.71
2022-11-08T06:03:47.820Z,87.96
2022-11-08T06:04:50.084Z,88.59
2022-11-08T06:05:51.641Z,88.42
2022-11-08T06:06:53.531Z,88.89
2022-11-08T06:07:55.305Z,90.03
2022-11-08T06:08:56.925Z,90.74
2022-11-08T06:09:58.443Z,90.11
2022-11-08T06:11:08.163Z,90.27
2022-11-08T06:12:09.730Z,91.45
2022-11-08T06:13:11.367Z,91.26
2022-11-08T06:14:13.456Z,91.63
2022-11-08T06:15:15.146Z,91.05
2022-11-08T06:16:18.178Z,92.08
2022-11-08T06:17:19.962Z,91.75
2022-11-08T06:18:21.654Z,92.20
2022-11-08T06:19:23.406Z,91.44
2022-11-08T06:20:25.017Z,91.75
2022-11-08T06:21:27.363Z,91.14
2022-11-08T06:22:32.136Z,91.36
2022-11-08T06:23:34.347Z,91.93
2022-11-08T06:24:36.307Z,91.77
2022-11-08T06:25:37.945Z,92.02
2022-11-08T06:26:39.585Z,91.17
2022-11-08T06:27:41.134Z,91.79
2022-11-08T06:28:42.707Z,91.80
2022-11-08T06:29:44.327Z,91.90
2022-11-08T06:30:46.417Z,92.18
2022-11-08T06:31:47.935Z,91.49
2022-11-08T06:32:49.448Z,90.75
2022-11-08T06:33:51.008Z,90.42
2022-11-08T06:34:52.959Z,90.73
2022-11-08T06:35:54.622Z,89.81
2022-11-08T06:36:58.715Z,90.33
2022-11-08T06:38:04.619Z,89.97
2022-11-08T06:39:09.761Z,90.39
2022-11-08T06:40:11.636Z,90.53
2022-11-08T06:41:18.827Z,90.48
2022-11-08T06:42:20.445Z,91.23
2022-11-08T06:43:22.450Z,90.85
2022-11-08T06:44:24.359Z,90.64
2022-11-08T06:45:26.695Z,90.83
2022-11-08T06:46:28.334Z,90.44
2022-11-08T06:47:29.857Z,89.45
2022-11-08T06:48:35.941Z,89.28
2022-11-08T06:49:37.819Z,90.00
2022-11-08T06:50:39.569Z,89.45
2022-11-08T06:51:41.129Z,88.87
2022-11-08T06:52:42.648Z,88.29
2022-11-08T06:53:44.697Z,87.65
2022-11-08T06:54:46.268Z,87.67
2022-11-08T06:55:47.776Z,87.58
2022-11-08T06:56:49.631Z,87.70
2022-11-08T06:57:51.561Z,86.54
2022-11-08T06:58:53.167Z,85.89
2022-11-08T06:59:54.711Z,86.12
2022-11-08T07:00:56.409Z,86.52
2022-11-08T07:01:58.129Z,85.80
2022-11-08T07:03:02.421Z,85.96
2022-11-08T07:04:04.212Z,85.65
2022-11-08T07:05:05.963Z,85.46
2022-11-08T07:06:07.957Z,84.32
2022-11-08T07:07:09.457Z,84.56
2022-11-08T07:08:11.367Z,84.40
2022-11-08T07:09:13.056Z,84.49
2022-11-08T07:10:14.585Z,82.88
2022-11-08T07:11:16.649Z,83.23
2022-11-08T07:12:18.450Z,84.90
2022-11-08T07:13:20.594Z,84.68
2022-11-08T07:14:22.518Z,84.19
2022-11-08T07:15:24.049Z,83.02
2022-11-08T07:16:25.727Z,82.44
2022-11-08T07:17:27.236Z,81.92
2022-11-08T07:18:29.383Z,81.44
2022-11-08T07:19:30.971Z,81.39
2022-11-08T07:20:33.323Z,81.10
2022-11-08T07:21:34.853Z,80.86
2022-11-08T07:22:36.516Z,80.04
2022-11-08T07:23:38.023Z,80.36
2022-11-08T07:24:39.523Z,80.31
2022-11-08T07:25:41.649Z,80.29
2022-11-08T07:26:43.213Z,80.67
2022-11-08T07:27:44.777Z,80.42
2022-11-08T07:28:46.313Z,79.96
2022-11-08T07:29:47.905Z,80.23
2022-11-08T07:30:49.741Z,79.64
2022-11-08T07:31:51.245Z,79.65
2022-11-08T07:32:52.896Z,79.28
2022-11-08T07:33:54.476Z,78.32
2022-11-08T07:34:55.989Z,78.59
2022-11-08T07:35:57.492Z,78.30
2022-11-08T07:36:59.007Z,77.73
2022-11-08T07:38:00.849Z,77.61
2022-11-08T07:39:06.418Z,78.01
2022-11-08T07:40:09.078Z,76.97
2022-11-08T07:41:12.667Z,77.09
2022-11-08T07:42:14.398Z,75.54
2022-11-08T07:43:16.668Z,75.43
2022-11-08T07:44:18.194Z,74.93
2022-11-08T07:45:19.875Z,74.54
2022-11-08T07:46:21.395Z,74.41
2022-11-08T07:47:22.937Z,73.20
2022-11-08T07:48:25.842Z,72.47
2022-11-08T07:49:27.351Z,71.80
2022-11-08T07:50:29.450Z,73.09
2022-11-08T07:51:30.967Z,73.01
2022-11-08T07:52:32.601Z,73.18
2022-11-08T07:53:34.128Z,72.80
2022-11-08T07:54:35.641Z,72.52
2022-11-08T07:55:39.037Z,72.22
2022-11-08T07:56:40.627Z,71.64
2022-11-08T07:57:42.183Z,71.38
2022-11-08T07:58:43.758Z,72.11
2022-11-08T07:59:45.459Z,71.44
2022-11-08T08:00:49.843Z,71.62
2022-11-08T08:01:51.421Z,70.31
2022-11-08T08:03:01.089Z,71.46
2022-11-08T08:04:02.777Z,70.71
2022-11-08T08:05:04.697Z,70.39
2022-11-08T08:06:06.375Z,69.97
2022-11-08T08:07:08.107Z,69.70
2022-11-08T08:08:11.624Z,69.76
2022-11-08T08:09:13.309Z,69.33
2022-11-08T08:10:14.903Z,69.69
2022-11-08T08:11:16.613Z,69.34
2022-11-08T08:12:18.159Z,69.98
2022-11-08T08:13:20.025Z,70.25
2022-11-08T08:14:21.999Z,70.08
2022-11-08T08:15:24.396Z,69.12
2022-11-08T08:16:25.966Z,69.28
2022-11-08T08:17:27.493Z,68.95
2022-11-08T08:18:30.206Z,68.83
2022-11-08T08:19:31.799Z,69.22
2022-11-08T08:20:34.964Z,69.10
2022-11-08T08:21:36.745Z,69.76
2022-11-08T08:22:46.020Z,69.42
2022-11-08T08:23:47.667Z,70.19
2022-11-08T08:24:49.243Z,69.90
2022-11-08T08:25:50.750Z,69.02
2022-11-08T08:26:52.764Z,68.56
2022-11-08T08:27:56.714Z,67.47
2022-11-08T08:28:58.367Z,67.67
2022-11-08T08:29:59.901Z,66.78
2022-11-08T08:31:01.612Z,68.21
2022-11-08T08:32:03.221Z,67.34
2022-11-08T08:33:27.331Z,66.93
2022-11-08T08:34:29.779Z,66.81
2022-11-08T08:35:31.332Z,66.90
2022-11-08T08:36:32.882Z,68.24
2022-11-08T08:37:34.427Z,69.43
2022-11-08T08:38:41.409Z,69.71
2022-11-08T08:39:46.592Z,70.76
2022-11-08T08:40:48.150Z,71.59
2022-11-08T08:41:49.653Z,72.60
2022-11-08T08:42:51.186Z,72.31
2022-11-08T08:43:52.707Z,71.82
2022-11-08T08:44:54.543Z,73.39
2022-11-08T08:46:05.038Z,73.99
2022-11-08T08:47:06.555Z,72.97
2022-11-08T08:48:08.115Z,71.81
2022-11-08T08:49:09.706Z,71.51
2022-11-08T08:50:11.286Z,70.07
2022-11-08T08:51:12.980Z,69.78
2022-11-08T08:52:14.685Z,69.37
2022-11-08T08:53:16.867Z,69.34
2022-11-08T08:54:18.744Z,69.10
2022-11-08T08:55:20.967Z,68.22
2022-11-08T08:56:22.522Z,68.22
2022-11-08T08:57:24.060Z,68.48
2022-11-08T08:58:25.571Z,68.37
2022-11-08T09:02:14.430Z,67.53
2022-11-08T09:03:16.448Z,66.71
2022-11-08T09:04:18.268Z,66.54
2022-11-08T09:05:19.869Z,66.77
2022-11-08T09:06:21.446Z,66.21
2022-11-08T09:07:23.097Z,65.75
2022-11-08T09:08:24.918Z,65.12
2022-11-08T09:09:26.441Z,65.56
2022-11-08T09:10:28.532Z,65.10
2022-11-08T09:11:30.186Z,65.04
2022-11-08T09:12:32.462Z,65.12
2022-11-08T09:13:34.097Z,64.51
2022-11-08T09:14:35.636Z,64.88
2022-11-08T09:15:39.357Z,64.23
2022-11-08T09:16:41.073Z,64.85
2022-11-08T09:17:43.026Z,64.97
2022-11-08T09:18:44.648Z,64.37
2022-11-08T09:19:46.474Z,63.84
2022-11-08T09:20:48.222Z,63.35
2022-11-08T09:21:49.821Z,63.76
2022-11-08T09:22:51.551Z,63.40
2022-11-08T09:23:53.187Z,64.43
2022-11-08T09:24:54.811Z,64.41
2022-11-08T09:26:06.353Z,64.71
2022-11-08T09:27:08.000Z,64.67
2022-11-08T09:28:10.193Z,64.87
2022-11-08T09:29:11.789Z,64.71
2022-11-08T09:30:13.479Z,65.11
2022-11-08T09:31:15.424Z,64.65
2022-11-08T09:32:24.713Z,64.28
2022-11-08T09:33:35.521Z,64.32
2022-11-08T09:34:37.116Z,64.43
2022-11-08T09:35:38.654Z,64.91
2022-11-08T09:36:40.220Z,64.87
2022-11-08T09:37:45.573Z,64.76
2022-11-08T09:38:50.291Z,64.19
2022-11-08T09:39:52.060Z,64.29
2022-11-08T09:41:00.260Z,64.69
2022-11-08T09:42:26.635Z,63.66
2022-11-08T09:43:53.439Z,64.16
2022-11-08T09:45:05.252Z,64.56
2022-11-08T09:46:11.874Z,64.81
2022-11-08T09:47:24.774Z,64.75
2022-11-08T09:48:28.578Z,64.54
2022-11-08T09:49:36.291Z,64.84
2022-11-08T09:50:47.058Z,64.90
2022-11-08T09:51:50.083Z,65.53
2022-11-08T09:53:25.832Z,65.60
2022-11-08T09:54:41.805Z,64.58
2022-11-08T09:56:01.678Z,64.61
2022-11-08T09:57:05.422Z,64.24
2022-11-08T09:58:21.241Z,64.40
2022-11-08T09:59:38.062Z,64.83
2022-11-08T10:00:40.827Z,64.88
2022-11-08T10:01:42.802Z,64.89
2022-11-08T10:02:44.721Z,64.51
2022-11-08T10:03:54.130Z,64.78
2022-11-08T10:05:00.728Z,65.40
2022-11-08T10:06:08.628Z,66.16
2022-11-08T10:07:41.525Z,65.11
2022-11-08T10:09:21.696Z,65.41
2022-11-08T10:10:34.887Z,65.42
2022-11-08T10:11:46.623Z,65.34
2022-11-08T10:13:18.658Z,65.08
2022-11-08T10:15:04.759Z,64.47
2022-11-08T10:16:43.878Z,65.61
2022-11-08T10:18:03.591Z,65.13
2022-11-08T10:19:35.084Z,64.68
2022-11-08T10:20:57.387Z,65.33
2022-11-08T10:22:27.991Z,64.65
2022-11-08T10:23:40.879Z,64.46
2022-11-08T10:25:00.939Z,65.06
2022-11-08T10:26:13.364Z,65.09
2022-11-08T10:27:22.355Z,64.64
2022-11-08T10:28:39.533Z,64.40
2022-11-08T10:29:44.870Z,64.10
2022-11-08T10:30:51.027Z,64.11
2022-11-08T10:32:01.609Z,62.89
2022-11-08T10:33:19.949Z,63.42
2022-11-08T10:34:25.819Z,63.45
2022-11-08T10:35:49.777Z,64.06
2022-11-08T10:36:58.159Z,64.24
2022-11-08T10:38:00.974Z,64.06
2022-11-08T10:39:15.782Z,64.53
2022-11-08T10:40:17.327Z,64.71
2022-11-08T10:41:23.555Z,64.38
2022-11-08T10:42:59.416Z,63.96
2022-11-08T10:44:16.754Z,63.34
2022-11-08T10:45:18.423Z,63.77
2022-11-08T10:46:38.445Z,62.24
2022-11-08T10:47:41.031Z,61.75
2022-11-08T10:48:42.593Z,62.08
2022-11-08T10:49:44.186Z,61.46
2022-11-08T10:50:49.532Z,61.56
2022-11-08T10:51:55.671Z,61.62
2022-11-08T10:53:03.614Z,60.72
2022-11-08T10:55:38.532Z,60.30
2022-11-08T10:57:00.459Z,60.46
2022-11-08T10:58:02.098Z,60.90
2022-11-08T10:59:03.906Z,60.01
2022-11-08T11:00:20.701Z,60.67
2022-11-08T11:01:24.637Z,59.96
2022-11-08T11:02:30.061Z,60.83
2022-11-08T11:03:31.924Z,60.64
2022-11-08T11:04:34.905Z,60.91
2022-11-08T11:05:55.094Z,60.15
2022-11-08T11:07:24.229Z,60.13
2022-11-08T11:08:26.425Z,59.92
2022-11-08T11:09:28.436Z,59.60
2022-11-08T11:10:35.436Z,60.50
2022-11-08T11:11:38.977Z,61.12
2022-11-08T11:12:40.531Z,62.17
2022-11-08T11:13:42.079Z,62.05
2022-11-08T11:14:43.605Z,61.65
2022-11-08T11:16:00.212Z,61.23
2022-11-08T11:17:07.981Z,60.49
2022-11-08T11:18:32.254Z,60.68
2022-11-08T11:19:34.689Z,60.75
2022-11-08T11:20:36.281Z,61.43
2022-11-08T11:21:40.023Z,60.74
2022-11-08T11:22:46.148Z,60.51
2022-11-08T11:23:52.068Z,60.49
2022-11-08T11:24:54.829Z,60.48
2022-11-08T11:25:56.414Z,59.62
2022-11-08T11:26:57.884Z,59.96
2022-11-08T11:28:00.956Z,60.21
2022-11-08T11:29:26.402Z,60.57
2022-11-08T11:30:30.454Z,59.94
2022-11-08T11:31:37.235Z,60.13
2022-11-08T11:32:39.999Z,60.24
2022-11-08T11:33:48.857Z,60.21
2022-11-08T11:34:55.067Z,60.06
2022-11-08T11:36:10.692Z,60.14
2022-11-08T11:37:20.823Z,60.32
2022-11-08T11:38:56.789Z,60.34
2022-11-08T11:40:21.333Z,60.65
2022-11-08T11:41:30.128Z,60.12
2022-11-08T11:42:46.562Z,60.85
2022-11-08T11:43:54.671Z,60.39
2022-11-08T11:45:08.522Z,60.08
2022-11-08T11:46:23.786Z,59.93
2022-11-08T11:47:48.731Z,60.09
2022-11-08T11:49:01.677Z,59.39
2022-11-08T11:50:17.097Z,59.42
2022-11-08T11:51:18.929Z,59.83
2022-11-08T11:52:20.623Z,60.14
2022-11-08T11:53:28.074Z,60.23
2022-11-08T11:54:33.990Z,59.87
2022-11-08T11:55:57.143Z,59.97
2022-11-08T11:57:08.436Z,60.39
2022-11-08T11:58:21.901Z,60.50
2022-11-08T12:00:00.794Z,59.69
2022-11-08T12:01:18.075Z,60.05
2022-11-08T12:02:29.138Z,59.58
2022-11-08T12:03:30.771Z,59.29
2022-11-08T12:04:57.025Z,59.49
2022-11-08T12:06:14.220Z,59.32
2022-11-08T12:07:25.266Z,59.25
2022-11-08T12:08:52.720Z,59.03
2022-11-08T12:10:12.858Z,58.98
2022-11-08T12:11:39.086Z,58.72
2022-11-08T12:13:17.771Z,58.54
2022-11-08T12:14:37.311Z,58.51
2022-11-08T12:15:49.700Z,57.85
2022-11-08T12:17:05.315Z,58.06
2022-11-08T12:18:42.132Z,57.70
2022-11-08T12:19:46.881Z,58.39
2022-11-08T12:21:09.670Z,58.26
2022-11-08T12:22:17.060Z,58.32
2022-11-08T12:23:47.803Z,58.17
2022-11-08T12:25:24.672Z,58.28
2022-11-08T12:26:44.919Z,58.48
2022-11-08T12:27:46.399Z,58.53
2022-11-08T12:29:25.018Z,58.13
2022-11-08T12:30:41.141Z,57.78
2022-11-08T12:31:52.396Z,57.77
2022-11-08T12:33:31.559Z,57.69
2022-11-08T12:34:57.875Z,58.26
2022-11-08T12:36:15.901Z,58.00
2022-11-08T12:37:20.345Z,57.57
2022-11-08T12:38:51.573Z,57.93
2022-11-08T12:39:58.965Z,57.65
2022-11-08T12:41:07.691Z,57.76
2022-11-08T12:42:44.506Z,57.78
2022-11-08T12:43:48.785Z,57.93
2022-11-08T12:45:19.400Z,57.42
2022-11-08T12:46:21.260Z,57.48
2022-11-08T12:47:46.543Z,57.28
2022-11-08T12:48:53.873Z,57.35
2022-11-08T12:50:20.901Z,57.24
2022-11-08T12:51:53.349Z,56.45
2022-11-08T12:53:06.938Z,56.71
2022-11-08T12:54:42.085Z,56.59
2022-11-08T12:55:47.271Z,57.08
2022-11-08T12:56:51.194Z,56.91
2022-11-08T12:57:54.725Z,56.96
2022-11-08T12:58:56.645Z,57.09
2022-11-08T13:00:05.789Z,57.24
2022-11-08T13:01:13.809Z,56.64
2022-11-08T13:02:21.083Z,56.87
2022-11-08T13:03:42.910Z,56.71
2022-11-08T13:04:50.412Z,57.16
2022-11-08T13:06:42.425Z,56.97
2022-11-08T13:07:52.260Z,56.70
2022-11-08T13:09:15.137Z,56.52
2022-11-08T13:10:47.607Z,56.59
2022-11-08T13:12:13.518Z,56.75
2022-11-08T13:13:32.876Z,56.83
2022-11-08T13:14:40.050Z,56.51
2022-11-08T13:16:18.283Z,56.28
2022-11-08T13:17:27.294Z,57.04
2022-11-08T13:18:34.127Z,57.18
2022-11-08T13:19:47.921Z,56.77
2022-11-08T13:20:50.221Z,56.58
2022-11-08T13:21:51.945Z,56.36
2022-11-08T13:23:00.897Z,57.14
2022-11-08T13:24:09.999Z,56.37
2022-11-08T13:25:23.792Z,56.37
2022-11-08T13:26:26.242Z,56.67
2022-11-08T13:27:36.916Z,56.36
2022-11-08T13:28:41.588Z,55.74
2022-11-08T13:29:43.158Z,55.80
2022-11-08T13:30:45.987Z,55.91
2022-11-08T13:32:43.605Z,58.54
2022-11-08T13:34:11.146Z,56.36
2022-11-08T13:35:30.264Z,55.51
2022-11-08T13:36:40.612Z,55.45
2022-11-08T13:38:00.249Z,55.83
2022-11-08T13:39:40.278Z,56.13
2022-11-08T13:41:06.907Z,56.19
2022-11-08T13:42:17.647Z,56.51
2022-11-08T13:43:29.644Z,56.27
2022-11-08T13:44:58.017Z,55.52
2022-11-08T13:46:27.373Z,55.33
2022-11-08T13:47:31.940Z,55.24
2022-11-08T13:48:36.096Z,54.72
2022-11-08T13:49:37.698Z,54.71
2022-11-08T13:50:46.622Z,54.54
2022-11-08T13:51:48.389Z,54.93
2022-11-08T13:53:25.199Z,54.83
2022-11-08T13:54:31.096Z,54.60
2022-11-08T13:55:41.946Z,54.83
2022-11-08T13:56:46.782Z,55.17
2022-11-08T13:57:57.470Z,55.20
2022-11-08T13:58:59.024Z,55.64
2022-11-08T14:00:00.678Z,55.87
2022-11-08T14:01:06.672Z,55.83
2022-11-08T14:02:32.181Z,55.63
2022-11-08T14:03:33.691Z,54.89
2022-11-08T14:04:40.239Z,54.91
2022-11-08T14:05:47.524Z,54.95
2022-11-08T14:07:23.929Z,54.88
2022-11-08T14:08:30.607Z,54.77
2022-11-08T14:09:43.267Z,54.43
2022-11-08T14:11:03.372Z,54.62
2022-11-08T14:12:07.554Z,55.21
2022-11-08T14:13:30.412Z,55.23
2022-11-08T14:14:38.058Z,55.32
2022-11-08T14:16:15.200Z,54.98
2022-11-08T14:17:48.845Z,55.06
2022-11-08T14:18:50.446Z,55.03
2022-11-08T14:19:52.910Z,55.25